TimeMST,TemperatureF,Dew PointF,Humidity,Sea Level PressureIn,VisibilityMPH,Wind Direction,Wind SpeedMPH,Gust SpeedMPH,PrecipitationIn,Events,Conditions,WindDirDegrees,DateUTC
12:28 AM,15.8,12.2,86,29.97,2.5,SSE,2.3,-,N/A,,Partly Cloudy,150,2013-02-24 07:28:00
12:33 AM,15.8,12.2,86,29.97,1.2,South,2.3,-,N/A,,Partly Cloudy,170,2013-02-24 07:33:00
12:38 AM,15.8,14.0,93,29.97,2.5,SSE,1.2,-,N/A,,Partly Cloudy,160,2013-02-24 07:38:00
12:43 AM,17.6,15.8,93,29.97,10.0,SSE,2.3,-,N/A,,Partly Cloudy,160,2013-02-24 07:43:00
12:58 AM,17.2,14.2,88,30.07,10.0,South,4.6,-,N/A,,Clear,180,2013-02-24 07:58:00
1:18 AM,14.0,12.2,93,29.98,2.5,South,3.5,-,N/A,,Clear,190,2013-02-24 08:18:00
1:23 AM,14.0,10.4,86,29.98,1.0,SSW,3.5,-,N/A,,Clear,210,2013-02-24 08:23:00
1:28 AM,12.2,10.4,92,29.98,0.8,South,4.6,-,N/A,,Clear,180,2013-02-24 08:28:00
1:33 AM,12.2,10.4,92,29.98,0.5,South,4.6,-,N/A,Fog,Light Freezing Fog,190,2013-02-24 08:33:00
1:38 AM,12.2,8.6,85,29.98,0.2,South,4.6,-,N/A,Fog,Light Freezing Fog,190,2013-02-24 08:38:00
1:48 AM,12.2,10.4,92,29.98,0.8,South,4.6,-,N/A,,Clear,180,2013-02-24 08:48:00
1:53 AM,12.2,10.4,92,29.98,1.2,South,3.5,-,N/A,,Clear,180,2013-02-24 08:53:00
1:58 AM,10.4,6.8,85,30.11,0.8,South,3.5,-,N/A,,Clear,180,2013-02-24 08:58:00
2:03 AM,12.2,8.6,85,29.99,0.8,South,2.3,-,N/A,,Clear,170,2013-02-24 09:03:00
2:08 AM,12.2,8.6,85,29.99,0.5,South,1.2,-,N/A,Fog,Light Freezing Fog,190,2013-02-24 09:08:00
2:13 AM,12.2,10.4,92,29.99,0.8,SSW,2.3,-,N/A,,Clear,210,2013-02-24 09:13:00
2:18 AM,12.2,8.6,85,29.99,0.8,SSW,3.5,-,N/A,,Clear,200,2013-02-24 09:18:00
2:23 AM,12.2,8.6,85,29.99,0.8,SW,3.5,-,N/A,,Clear,220,2013-02-24 09:23:00
2:28 AM,12.2,8.6,85,29.99,1.2,SW,2.3,-,N/A,,Clear,230,2013-02-24 09:28:00
2:33 AM,14.0,10.4,86,29.99,0.5,SW,2.3,-,N/A,Fog,Light Freezing Fog,230,2013-02-24 09:33:00
2:38 AM,14.0,10.4,86,29.99,0.2,South,2.3,-,N/A,Fog,Light Freezing Fog,170,2013-02-24 09:38:00
2:48 AM,14.0,10.4,86,29.99,0.5,South,2.3,-,N/A,Fog,Light Freezing Fog,190,2013-02-24 09:48:00
2:53 AM,15.8,12.2,86,29.99,0.8,SW,2.3,-,N/A,,Mostly Cloudy,220,2013-02-24 09:53:00
2:58 AM,16.3,13.3,88,30.09,1.5,WSW,2.3,-,N/A,,Mostly Cloudy,240,2013-02-24 09:58:00
3:03 AM,17.6,15.8,93,29.98,4.0,WSW,3.5,-,N/A,,Scattered Clouds,240,2013-02-24 10:03:00
3:08 AM,19.4,15.8,86,29.99,5.0,WSW,2.3,-,N/A,,Scattered Clouds,250,2013-02-24 10:08:00
3:13 AM,19.4,15.8,86,29.99,4.0,West,2.3,-,N/A,,Partly Cloudy,260,2013-02-24 10:13:00
3:23 AM,17.6,14.0,86,29.99,1.0,Calm,Calm,-,N/A,,Clear,0,2013-02-24 10:23:00
3:28 AM,17.6,14.0,86,29.99,0.8,ESE,3.5,-,N/A,,Clear,110,2013-02-24 10:28:00
3:33 AM,17.6,14.0,86,29.99,2.0,ESE,2.3,-,N/A,,Clear,110,2013-02-24 10:33:00
3:38 AM,19.4,15.8,86,29.98,8.0,SE,2.3,-,N/A,,Clear,130,2013-02-24 10:38:00
3:58 AM,18.5,15.4,88,30.08,7.0,Calm,Calm,-,N/A,,Clear,0,2013-02-24 10:58:00
4:23 AM,17.6,15.8,93,29.99,3.0,West,2.3,-,N/A,,Clear,280,2013-02-24 11:23:00
4:28 AM,17.6,14.0,86,29.99,2.5,West,1.2,-,N/A,,Clear,280,2013-02-24 11:28:00
4:33 AM,17.6,15.8,93,30.00,7.0,WSW,2.3,-,N/A,,Clear,250,2013-02-24 11:33:00
4:48 AM,19.4,15.8,86,30.00,10.0,WNW,2.3,-,N/A,,Mostly Cloudy,290,2013-02-24 11:48:00
4:58 AM,19.2,16.3,89,30.09,10.0,NW,5.8,-,N/A,,Mostly Cloudy,310,2013-02-24 11:58:00
5:23 AM,19.4,15.8,86,30.01,10.0,NNE,2.3,-,N/A,,Scattered Clouds,30,2013-02-24 12:23:00
5:43 AM,19.4,15.8,86,30.02,10.0,NNE,3.5,-,N/A,,Mostly Cloudy,20,2013-02-24 12:43:00
5:58 AM,18.9,16.0,89,30.12,10.0,WNW,6.9,-,N/A,,Mostly Cloudy,300,2013-02-24 12:58:00
6:03 AM,17.6,15.8,93,30.03,10.0,NW,4.6,-,N/A,,Scattered Clouds,320,2013-02-24 13:03:00
6:58 AM,16.3,13.3,88,30.16,10.0,WNW,9.2,-,N/A,,Scattered Clouds,300,2013-02-24 13:58:00
7:03 AM,15.8,12.2,86,30.05,10.0,NW,2.3,-,N/A,,Mostly Cloudy,320,2013-02-24 14:03:00
7:33 AM,14.0,10.4,86,30.05,10.0,NW,5.8,-,N/A,,Scattered Clouds,310,2013-02-24 14:33:00
7:58 AM,14.5,11.5,88,30.19,10.0,North,5.8,-,N/A,,Clear,10,2013-02-24 14:58:00
8:58 AM,18.5,13.3,80,30.21,10.0,NE,1.2,-,N/A,,Clear,40,2013-02-24 15:58:00
9:58 AM,20.8,11.7,68,30.22,10.0,ENE,1.2,-,N/A,,Clear,60,2013-02-24 16:58:00
10:05 AM,23.0,10.4,59,30.12,10.0,ENE,3.5,-,N/A,,Clear,70,2013-02-24 17:05:00
10:15 AM,23.0,10.4,59,30.12,10.0,NE,2.3,-,N/A,,Clear,40,2013-02-24 17:15:00
10:58 AM,24.3,12.2,60,30.22,10.0,West,5.8,-,0.00,,Clear,260,2013-02-24 17:58:00
11:58 AM,26.1,12.4,56,30.24,10.0,NNW,2.3,-,N/A,,Clear,340,2013-02-24 18:58:00
12:58 PM,28.8,16.0,59,30.25,10.0,WNW,4.6,-,N/A,,Clear,300,2013-02-24 19:58:00
1:58 PM,28.8,12.2,50,30.27,10.0,West,3.5,-,N/A,,Clear,270,2013-02-24 20:58:00
2:58 PM,30.2,11.7,46,30.25,10.0,NNW,5.8,-,N/A,,Clear,330,2013-02-24 21:58:00
3:58 PM,30.4,10.9,44,30.27,10.0,WNW,9.2,-,N/A,,Clear,300,2013-02-24 22:58:00
4:58 PM,29.7,10.8,45,30.28,10.0,NW,8.1,-,N/A,,Clear,310,2013-02-24 23:58:00
5:58 PM,27.1,10.9,51,30.31,10.0,NW,2.3,-,N/A,,Clear,310,2013-02-25 00:58:00
6:58 PM,20.7,9.9,63,30.35,10.0,South,2.3,-,N/A,,Clear,170,2013-02-25 01:58:00
7:58 PM,21.0,9.3,61,30.37,10.0,SSE,3.5,-,N/A,,Clear,160,2013-02-25 02:58:00
8:58 PM,19.2,8.4,63,30.37,10.0,South,4.6,-,N/A,,Clear,180,2013-02-25 03:58:00
9:58 PM,19.8,7.3,59,30.35,10.0,ESE,5.8,-,N/A,,Clear,120,2013-02-25 04:58:00
10:58 PM,18.5,8.4,65,30.35,10.0,ESE,8.1,-,N/A,,Clear,120,2013-02-25 05:58:00
11:58 PM,17.6,6.1,61,30.35,10.0,ESE,9.2,-,N/A,,Clear,110,2013-02-25 06:58:00